sensor_id;sensor_type;location;lat;lon;timestamp;P1;durP1;ratioP1;P2;durP2;ratioP2
48524;SDS011;34316;51.514;-0.178;2022-09-09T00:03:45;11.15;;;9.05;;
48524;SDS011;34316;51.514;-0.178;2022-09-09T00:08:02;12.95;;;8.40;;
48524;SDS011;34316;51.514;-0.178;2022-09-09T00:16:34;10.75;;;9.13;;
48524;SDS011;34316;51.514;-0.178;2022-09-09T00:21:05;10.48;;;8.40;;
48524;SDS011;34316;51.514;-0.178;2022-09-09T00:23:14;12.35;;;9.50;;
48524;SDS011;34316;51.514;-0.178;2022-09-09T00:25:26;10.70;;;9.60;;
48524;SDS011;34316;51.514;-0.178;2022-09-09T00:27:41;12.20;;;8.90;;
48524;SDS011;34316;51.514;-0.178;2022-09-09T00:32:21;12.27;;;9.93;;
48524;SDS011;34316;51.514;-0.178;2022-09-09T00:34:23;10.50;;;8.90;;
48524;SDS011;34316;51.514;-0.178;2022-09-09T00:36:27;10.82;;;8.85;;
48524;SDS011;34316;51.514;-0.178;2022-09-09T00:38:49;14.65;;;10.00;;
48524;SDS011;34316;51.514;-0.178;2022-09-09T00:41:05;12.48;;;9.35;;
48524;SDS011;34316;51.514;-0.178;2022-09-09T00:43:44;13.05;;;8.95;;
48524;SDS011;34316;51.514;-0.178;2022-09-09T00:46:02;10.80;;;9.63;;
48524;SDS011;34316;51.514;-0.178;2022-09-09T00:48:19;16.52;;;10.07;;
48524;SDS011;34316;51.514;-0.178;2022-09-09T00:57:31;11.50;;;9.90;;
48524;SDS011;34316;51.514;-0.178;2022-09-09T00:59:47;13.13;;;10.02;;
48524;SDS011;34316;51.514;-0.178;2022-09-09T01:01:59;12.45;;;9.73;;
48524;SDS011;34316;51.514;-0.178;2022-09-09T01:04:03;11.73;;;9.48;;
48524;SDS011;34316;51.514;-0.178;2022-09-09T01:10:50;10.85;;;9.43;;
48524;SDS011;34316;51.514;-0.178;2022-09-09T01:12:55;11.05;;;8.88;;
48524;SDS011;34316;51.514;-0.178;2022-09-09T01:15:09;12.15;;;9.13;;
48524;SDS011;34316;51.514;-0.178;2022-09-09T01:19:25;10.60;;;8.57;;
48524;SDS011;34316;51.514;-0.178;2022-09-09T01:26:42;10.25;;;9.23;;
48524;SDS011;34316;51.514;-0.178;2022-09-09T01:28:48;12.55;;;9.55;;
48524;SDS011;34316;51.514;-0.178;2022-09-09T01:30:51;10.23;;;9.13;;
48524;SDS011;34316;51.514;-0.178;2022-09-09T01:32:56;10.50;;;8.82;;
48524;SDS011;34316;51.514;-0.178;2022-09-09T01:35:00;15.35;;;9.68;;
48524;SDS011;34316;51.514;-0.178;2022-09-09T01:37:06;12.40;;;9.67;;
48524;SDS011;34316;51.514;-0.178;2022-09-09T01:39:09;14.68;;;9.60;;
48524;SDS011;34316;51.514;-0.178;2022-09-09T01:41:11;11.68;;;10.45;;
48524;SDS011;34316;51.514;-0.178;2022-09-09T01:43:13;12.40;;;9.57;;
48524;SDS011;34316;51.514;-0.178;2022-09-09T01:45:15;16.15;;;9.73;;
48524;SDS011;34316;51.514;-0.178;2022-09-09T01:47:17;12.52;;;9.27;;
48524;SDS011;34316;51.514;-0.178;2022-09-09T01:49:19;11.88;;;9.90;;
48524;SDS011;34316;51.514;-0.178;2022-09-09T01:51:20;10.52;;;8.65;;
48524;SDS011;34316;51.514;-0.178;2022-09-09T01:53:22;14.80;;;9.73;;
48524;SDS011;34316;51.514;-0.178;2022-09-09T01:55:29;14.57;;;9.38;;
48524;SDS011;34316;51.514;-0.178;2022-09-09T02:00:18;11.35;;;8.48;;
48524;SDS011;34316;51.514;-0.178;2022-09-09T02:02:30;10.10;;;9.00;;
48524;SDS011;34316;51.514;-0.178;2022-09-09T02:06:39;10.25;;;9.00;;
48524;SDS011;34316;51.514;-0.178;2022-09-09T02:12:59;10.30;;;9.18;;
48524;SDS011;34316;51.514;-0.178;2022-09-09T02:15:07;13.43;;;9.43;;
48524;SDS011;34316;51.514;-0.178;2022-09-09T02:17:26;11.90;;;9.20;;
48524;SDS011;34316;51.514;-0.178;2022-09-09T02:19:39;11.57;;;8.65;;
48524;SDS011;34316;51.514;-0.178;2022-09-09T02:21:50;9.90;;;8.70;;
48524;SDS011;34316;51.514;-0.178;2022-09-09T02:23:53;10.32;;;8.95;;
48524;SDS011;34316;51.514;-0.178;2022-09-09T02:25:55;12.40;;;9.45;;
48524;SDS011;34316;51.514;-0.178;2022-09-09T02:27:59;16.10;;;9.02;;
48524;SDS011;34316;51.514;-0.178;2022-09-09T02:30:01;15.10;;;9.75;;
48524;SDS011;34316;51.514;-0.178;2022-09-09T02:32:06;15.50;;;10.23;;
48524;SDS011;34316;51.514;-0.178;2022-09-09T02:34:10;10.88;;;9.77;;
48524;SDS011;34316;51.514;-0.178;2022-09-09T02:36:14;11.85;;;9.63;;
48524;SDS011;34316;51.514;-0.178;2022-09-09T02:38:17;12.85;;;9.98;;
48524;SDS011;34316;51.514;-0.178;2022-09-09T02:40:20;14.57;;;10.80;;
48524;SDS011;34316;51.514;-0.178;2022-09-09T02:42:22;15.35;;;11.35;;
48524;SDS011;34316;51.514;-0.178;2022-09-09T02:44:25;17.90;;;11.38;;
48524;SDS011;34316;51.514;-0.178;2022-09-09T02:48:56;14.27;;;10.30;;
48524;SDS011;34316;51.514;-0.178;2022-09-09T02:57:37;12.10;;;9.95;;
48524;SDS011;34316;51.514;-0.178;2022-09-09T02:59:40;10.23;;;9.20;;
48524;SDS011;34316;51.514;-0.178;2022-09-09T03:01:42;11.27;;;9.98;;
48524;SDS011;34316;51.514;-0.178;2022-09-09T03:03:45;10.32;;;9.20;;
48524;SDS011;34316;51.514;-0.178;2022-09-09T03:05:47;15.00;;;10.93;;
48524;SDS011;34316;51.514;-0.178;2022-09-09T03:07:49;14.32;;;10.60;;
48524;SDS011;34316;51.514;-0.178;2022-09-09T03:09:51;13.68;;;10.10;;
48524;SDS011;34316;51.514;-0.178;2022-09-09T03:11:56;11.13;;;10.02;;
48524;SDS011;34316;51.514;-0.178;2022-09-09T03:13:58;12.23;;;10.45;;
48524;SDS011;34316;51.514;-0.178;2022-09-09T03:15:59;13.75;;;10.82;;
48524;SDS011;34316;51.514;-0.178;2022-09-09T03:18:01;11.57;;;10.30;;
48524;SDS011;34316;51.514;-0.178;2022-09-09T03:20:03;14.65;;;10.25;;
48524;SDS011;34316;51.514;-0.178;2022-09-09T03:22:05;12.25;;;10.70;;
48524;SDS011;34316;51.514;-0.178;2022-09-09T03:24:07;12.50;;;10.48;;
48524;SDS011;34316;51.514;-0.178;2022-09-09T03:26:08;14.80;;;10.40;;
48524;SDS011;34316;51.514;-0.178;2022-09-09T03:28:10;12.30;;;10.00;;
48524;SDS011;34316;51.514;-0.178;2022-09-09T03:30:12;11.73;;;10.02;;
48524;SDS011;34316;51.514;-0.178;2022-09-09T03:32:15;14.38;;;10.70;;
48524;SDS011;34316;51.514;-0.178;2022-09-09T03:34:18;13.40;;;10.38;;
48524;SDS011;34316;51.514;-0.178;2022-09-09T03:36:20;11.05;;;9.93;;
48524;SDS011;34316;51.514;-0.178;2022-09-09T03:38:25;12.93;;;10.63;;
48524;SDS011;34316;51.514;-0.178;2022-09-09T03:40:26;13.48;;;10.73;;
48524;SDS011;34316;51.514;-0.178;2022-09-09T03:42:28;12.80;;;10.25;;
48524;SDS011;34316;51.514;-0.178;2022-09-09T03:44:30;13.82;;;9.43;;
48524;SDS011;34316;51.514;-0.178;2022-09-09T03:46:32;12.85;;;10.15;;
48524;SDS011;34316;51.514;-0.178;2022-09-09T03:48:33;14.05;;;9.65;;
48524;SDS011;34316;51.514;-0.178;2022-09-09T03:50:35;12.38;;;10.18;;
48524;SDS011;34316;51.514;-0.178;2022-09-09T03:52:37;13.00;;;10.07;;
48524;SDS011;34316;51.514;-0.178;2022-09-09T03:54:40;12.85;;;10.85;;
48524;SDS011;34316;51.514;-0.178;2022-09-09T03:58:45;15.93;;;11.13;;
48524;SDS011;34316;51.514;-0.178;2022-09-09T04:00:54;15.80;;;12.20;;
48524;SDS011;34316;51.514;-0.178;2022-09-09T04:02:56;15.57;;;11.30;;
48524;SDS011;34316;51.514;-0.178;2022-09-09T04:04:58;13.73;;;11.33;;
48524;SDS011;34316;51.514;-0.178;2022-09-09T04:07:01;15.95;;;10.90;;
48524;SDS011;34316;51.514;-0.178;2022-09-09T04:09:03;15.85;;;11.23;;
48524;SDS011;34316;51.514;-0.178;2022-09-09T04:11:04;13.98;;;10.30;;
48524;SDS011;34316;51.514;-0.178;2022-09-09T04:13:08;14.77;;;10.85;;
48524;SDS011;34316;51.514;-0.178;2022-09-09T04:15:09;19.98;;;10.85;;
48524;SDS011;34316;51.514;-0.178;2022-09-09T04:17:11;14.57;;;10.95;;
48524;SDS011;34316;51.514;-0.178;2022-09-09T04:19:13;16.50;;;10.70;;
48524;SDS011;34316;51.514;-0.178;2022-09-09T04:21:15;13.45;;;11.23;;
48524;SDS011;34316;51.514;-0.178;2022-09-09T04:23:17;14.00;;;10.43;;
48524;SDS011;34316;51.514;-0.178;2022-09-09T04:25:22;17.17;;;11.32;;
48524;SDS011;34316;51.514;-0.178;2022-09-09T04:27:24;17.10;;;11.13;;
48524;SDS011;34316;51.514;-0.178;2022-09-09T04:29:25;14.18;;;10.82;;
48524;SDS011;34316;51.514;-0.178;2022-09-09T04:31:27;14.95;;;10.45;;
48524;SDS011;34316;51.514;-0.178;2022-09-09T04:33:29;15.55;;;11.85;;
48524;SDS011;34316;51.514;-0.178;2022-09-09T04:35:32;12.82;;;10.05;;
48524;SDS011;34316;51.514;-0.178;2022-09-09T04:37:35;15.68;;;10.63;;
48524;SDS011;34316;51.514;-0.178;2022-09-09T04:39:36;13.32;;;10.57;;
48524;SDS011;34316;51.514;-0.178;2022-09-09T04:41:38;13.77;;;11.32;;
48524;SDS011;34316;51.514;-0.178;2022-09-09T04:43:40;15.85;;;11.15;;
48524;SDS011;34316;51.514;-0.178;2022-09-09T04:45:42;17.52;;;11.10;;
48524;SDS011;34316;51.514;-0.178;2022-09-09T04:47:44;16.45;;;10.98;;
48524;SDS011;34316;51.514;-0.178;2022-09-09T04:49:46;17.05;;;11.30;;
48524;SDS011;34316;51.514;-0.178;2022-09-09T04:51:49;15.20;;;10.48;;
48524;SDS011;34316;51.514;-0.178;2022-09-09T04:53:50;15.65;;;10.70;;
48524;SDS011;34316;51.514;-0.178;2022-09-09T04:56:05;18.25;;;10.52;;
48524;SDS011;34316;51.514;-0.178;2022-09-09T04:58:08;15.20;;;11.10;;
48524;SDS011;34316;51.514;-0.178;2022-09-09T05:00:10;15.65;;;11.00;;
48524;SDS011;34316;51.514;-0.178;2022-09-09T05:02:12;18.50;;;12.02;;
48524;SDS011;34316;51.514;-0.178;2022-09-09T05:04:14;20.27;;;11.20;;
48524;SDS011;34316;51.514;-0.178;2022-09-09T05:06:19;25.35;;;11.05;;
48524;SDS011;34316;51.514;-0.178;2022-09-09T05:10:24;16.33;;;11.13;;
48524;SDS011;34316;51.514;-0.178;2022-09-09T05:12:25;18.33;;;11.55;;
48524;SDS011;34316;51.514;-0.178;2022-09-09T05:14:28;20.25;;;11.60;;
48524;SDS011;34316;51.514;-0.178;2022-09-09T05:16:31;22.05;;;12.27;;
48524;SDS011;34316;51.514;-0.178;2022-09-09T05:18:32;15.00;;;10.77;;
48524;SDS011;34316;51.514;-0.178;2022-09-09T05:20:34;15.10;;;11.07;;
48524;SDS011;34316;51.514;-0.178;2022-09-09T05:22:36;17.42;;;11.13;;
48524;SDS011;34316;51.514;-0.178;2022-09-09T05:24:38;19.15;;;11.23;;
48524;SDS011;34316;51.514;-0.178;2022-09-09T05:26:39;17.02;;;11.52;;
48524;SDS011;34316;51.514;-0.178;2022-09-09T05:28:41;13.15;;;11.13;;
48524;SDS011;34316;51.514;-0.178;2022-09-09T05:30:43;13.82;;;11.57;;
48524;SDS011;34316;51.514;-0.178;2022-09-09T05:32:45;17.05;;;12.85;;
48524;SDS011;34316;51.514;-0.178;2022-09-09T05:34:48;14.63;;;11.68;;
48524;SDS011;34316;51.514;-0.178;2022-09-09T05:36:49;18.45;;;10.93;;
48524;SDS011;34316;51.514;-0.178;2022-09-09T05:40:57;20.38;;;12.20;;
48524;SDS011;34316;51.514;-0.178;2022-09-09T05:42:59;16.10;;;11.30;;
48524;SDS011;34316;51.514;-0.178;2022-09-09T05:45:01;16.70;;;12.82;;
48524;SDS011;34316;51.514;-0.178;2022-09-09T05:47:03;19.23;;;12.45;;
48524;SDS011;34316;51.514;-0.178;2022-09-09T05:49:05;22.35;;;11.45;;
48524;SDS011;34316;51.514;-0.178;2022-09-09T05:51:11;16.83;;;12.27;;
48524;SDS011;34316;51.514;-0.178;2022-09-09T05:53:14;15.05;;;11.60;;
48524;SDS011;34316;51.514;-0.178;2022-09-09T05:55:15;16.42;;;10.82;;
48524;SDS011;34316;51.514;-0.178;2022-09-09T05:57:17;23.17;;;11.93;;
48524;SDS011;34316;51.514;-0.178;2022-09-09T05:59:20;12.35;;;10.98;;
48524;SDS011;34316;51.514;-0.178;2022-09-09T06:01:28;13.88;;;11.40;;
48524;SDS011;34316;51.514;-0.178;2022-09-09T06:03:38;24.13;;;12.25;;
48524;SDS011;34316;51.514;-0.178;2022-09-09T06:05:40;15.77;;;12.52;;
48524;SDS011;34316;51.514;-0.178;2022-09-09T06:07:42;19.92;;;12.57;;
48524;SDS011;34316;51.514;-0.178;2022-09-09T06:09:46;17.10;;;12.85;;
48524;SDS011;34316;51.514;-0.178;2022-09-09T06:11:48;20.67;;;13.93;;
48524;SDS011;34316;51.514;-0.178;2022-09-09T06:13:50;21.52;;;13.48;;
48524;SDS011;34316;51.514;-0.178;2022-09-09T06:15:55;16.15;;;12.40;;
48524;SDS011;34316;51.514;-0.178;2022-09-09T06:17:57;18.08;;;13.75;;
48524;SDS011;34316;51.514;-0.178;2022-09-09T06:19:59;19.17;;;13.40;;
48524;SDS011;34316;51.514;-0.178;2022-09-09T06:22:00;22.70;;;13.68;;
48524;SDS011;34316;51.514;-0.178;2022-09-09T06:24:02;17.88;;;12.88;;
48524;SDS011;34316;51.514;-0.178;2022-09-09T06:26:05;15.73;;;13.05;;
48524;SDS011;34316;51.514;-0.178;2022-09-09T06:28:12;17.98;;;13.18;;
48524;SDS011;34316;51.514;-0.178;2022-09-09T06:30:14;21.63;;;14.65;;
48524;SDS011;34316;51.514;-0.178;2022-09-09T06:34:19;24.20;;;13.35;;
48524;SDS011;34316;51.514;-0.178;2022-09-09T06:36:22;18.52;;;12.18;;
48524;SDS011;34316;51.514;-0.178;2022-09-09T06:38:26;18.80;;;13.27;;
48524;SDS011;34316;51.514;-0.178;2022-09-09T06:40:28;16.33;;;12.27;;
48524;SDS011;34316;51.514;-0.178;2022-09-09T06:42:31;17.63;;;12.70;;
48524;SDS011;34316;51.514;-0.178;2022-09-09T06:44:33;20.30;;;11.43;;
48524;SDS011;34316;51.514;-0.178;2022-09-09T06:46:35;14.70;;;10.87;;
48524;SDS011;34316;51.514;-0.178;2022-09-09T06:48:40;17.15;;;11.20;;
48524;SDS011;34316;51.514;-0.178;2022-09-09T06:50:42;13.00;;;10.93;;
48524;SDS011;34316;51.514;-0.178;2022-09-09T06:52:45;17.17;;;10.80;;
48524;SDS011;34316;51.514;-0.178;2022-09-09T06:54:48;19.45;;;11.65;;
48524;SDS011;34316;51.514;-0.178;2022-09-09T06:56:51;18.27;;;11.75;;
48524;SDS011;34316;51.514;-0.178;2022-09-09T06:58:53;16.88;;;11.77;;
48524;SDS011;34316;51.514;-0.178;2022-09-09T07:01:05;15.48;;;12.25;;
48524;SDS011;34316;51.514;-0.178;2022-09-09T07:03:07;15.32;;;11.82;;
48524;SDS011;34316;51.514;-0.178;2022-09-09T07:05:11;16.25;;;11.90;;
48524;SDS011;34316;51.514;-0.178;2022-09-09T07:07:13;15.50;;;11.43;;
48524;SDS011;34316;51.514;-0.178;2022-09-09T07:11:19;14.73;;;10.43;;
48524;SDS011;34316;51.514;-0.178;2022-09-09T07:13:24;24.05;;;16.88;;
48524;SDS011;34316;51.514;-0.178;2022-09-09T07:15:26;22.20;;;14.15;;
48524;SDS011;34316;51.514;-0.178;2022-09-09T07:17:28;21.27;;;13.40;;
48524;SDS011;34316;51.514;-0.178;2022-09-09T07:19:30;19.65;;;11.25;;
48524;SDS011;34316;51.514;-0.178;2022-09-09T07:21:32;14.68;;;11.95;;
48524;SDS011;34316;51.514;-0.178;2022-09-09T07:23:34;15.57;;;11.13;;
48524;SDS011;34316;51.514;-0.178;2022-09-09T07:25:44;15.45;;;11.35;;
48524;SDS011;34316;51.514;-0.178;2022-09-09T07:27:46;20.48;;;10.95;;
48524;SDS011;34316;51.514;-0.178;2022-09-09T07:29:48;18.88;;;12.00;;
48524;SDS011;34316;51.514;-0.178;2022-09-09T07:31:49;23.88;;;12.55;;
48524;SDS011;34316;51.514;-0.178;2022-09-09T07:33:51;24.52;;;13.65;;
48524;SDS011;34316;51.514;-0.178;2022-09-09T07:35:53;17.33;;;11.63;;
48524;SDS011;34316;51.514;-0.178;2022-09-09T07:37:55;18.38;;;11.90;;
48524;SDS011;34316;51.514;-0.178;2022-09-09T07:39:57;16.55;;;10.68;;
48524;SDS011;34316;51.514;-0.178;2022-09-09T07:42:00;15.20;;;10.45;;
48524;SDS011;34316;51.514;-0.178;2022-09-09T07:44:05;14.30;;;9.65;;
48524;SDS011;34316;51.514;-0.178;2022-09-09T07:46:08;14.25;;;9.52;;
48524;SDS011;34316;51.514;-0.178;2022-09-09T07:48:11;17.73;;;10.13;;
48524;SDS011;34316;51.514;-0.178;2022-09-09T07:50:12;12.82;;;8.93;;
48524;SDS011;34316;51.514;-0.178;2022-09-09T07:52:14;14.93;;;9.13;;
48524;SDS011;34316;51.514;-0.178;2022-09-09T07:54:20;15.88;;;9.43;;
48524;SDS011;34316;51.514;-0.178;2022-09-09T07:56:25;15.85;;;9.85;;
48524;SDS011;34316;51.514;-0.178;2022-09-09T07:58:27;17.23;;;9.30;;
48524;SDS011;34316;51.514;-0.178;2022-09-09T08:00:28;12.90;;;9.50;;
48524;SDS011;34316;51.514;-0.178;2022-09-09T08:02:30;14.35;;;9.02;;
48524;SDS011;34316;51.514;-0.178;2022-09-09T08:04:32;12.32;;;8.18;;
48524;SDS011;34316;51.514;-0.178;2022-09-09T08:06:38;12.75;;;7.38;;
48524;SDS011;34316;51.514;-0.178;2022-09-09T08:08:40;13.20;;;8.52;;
48524;SDS011;34316;51.514;-0.178;2022-09-09T08:12:45;12.35;;;8.52;;
48524;SDS011;34316;51.514;-0.178;2022-09-09T08:15:07;10.23;;;8.27;;
48524;SDS011;34316;51.514;-0.178;2022-09-09T08:17:09;12.43;;;7.45;;
48524;SDS011;34316;51.514;-0.178;2022-09-09T08:19:11;10.40;;;7.97;;
48524;SDS011;34316;51.514;-0.178;2022-09-09T08:21:14;16.00;;;7.95;;
48524;SDS011;34316;51.514;-0.178;2022-09-09T08:23:18;10.07;;;7.25;;
48524;SDS011;34316;51.514;-0.178;2022-09-09T08:25:20;10.43;;;7.63;;
48524;SDS011;34316;51.514;-0.178;2022-09-09T08:27:22;14.02;;;8.20;;
48524;SDS011;34316;51.514;-0.178;2022-09-09T08:29:24;12.00;;;7.68;;
48524;SDS011;34316;51.514;-0.178;2022-09-09T08:31:27;10.27;;;7.80;;
48524;SDS011;34316;51.514;-0.178;2022-09-09T08:33:32;14.70;;;8.07;;
48524;SDS011;34316;51.514;-0.178;2022-09-09T08:35:34;13.93;;;7.93;;
48524;SDS011;34316;51.514;-0.178;2022-09-09T08:37:36;11.43;;;8.77;;
48524;SDS011;34316;51.514;-0.178;2022-09-09T08:39:38;11.27;;;7.78;;
48524;SDS011;34316;51.514;-0.178;2022-09-09T08:48:59;9.02;;;6.43;;
48524;SDS011;34316;51.514;-0.178;2022-09-09T08:51:05;10.30;;;6.55;;
48524;SDS011;34316;51.514;-0.178;2022-09-09T08:55:22;11.95;;;6.97;;
48524;SDS011;34316;51.514;-0.178;2022-09-09T08:57:28;9.13;;;6.38;;
48524;SDS011;34316;51.514;-0.178;2022-09-09T08:59:30;19.52;;;6.32;;
48524;SDS011;34316;51.514;-0.178;2022-09-09T09:01:47;10.75;;;7.15;;
48524;SDS011;34316;51.514;-0.178;2022-09-09T09:06:01;13.43;;;7.07;;
48524;SDS011;34316;51.514;-0.178;2022-09-09T09:08:14;11.88;;;6.75;;
48524;SDS011;34316;51.514;-0.178;2022-09-09T09:12:42;11.38;;;6.30;;
48524;SDS011;34316;51.514;-0.178;2022-09-09T09:14:46;11.88;;;6.32;;
48524;SDS011;34316;51.514;-0.178;2022-09-09T09:16:59;9.52;;;5.82;;
48524;SDS011;34316;51.514;-0.178;2022-09-09T09:19:02;8.15;;;6.00;;
48524;SDS011;34316;51.514;-0.178;2022-09-09T09:21:10;7.05;;;5.57;;
48524;SDS011;34316;51.514;-0.178;2022-09-09T09:23:40;13.98;;;6.05;;
48524;SDS011;34316;51.514;-0.178;2022-09-09T09:27:49;7.07;;;6.05;;
48524;SDS011;34316;51.514;-0.178;2022-09-09T09:30:18;11.32;;;6.10;;
48524;SDS011;34316;51.514;-0.178;2022-09-09T09:32:30;9.80;;;6.28;;
48524;SDS011;34316;51.514;-0.178;2022-09-09T09:34:34;16.10;;;6.15;;
48524;SDS011;34316;51.514;-0.178;2022-09-09T09:36:40;8.63;;;6.03;;
48524;SDS011;34316;51.514;-0.178;2022-09-09T09:38:54;7.63;;;5.43;;
48524;SDS011;34316;51.514;-0.178;2022-09-09T09:41:17;12.50;;;5.95;;
48524;SDS011;34316;51.514;-0.178;2022-09-09T09:43:37;17.40;;;5.90;;
48524;SDS011;34316;51.514;-0.178;2022-09-09T09:45:42;11.00;;;5.90;;
48524;SDS011;34316;51.514;-0.178;2022-09-09T09:48:11;10.95;;;6.03;;
48524;SDS011;34316;51.514;-0.178;2022-09-09T09:50:18;14.52;;;6.35;;
48524;SDS011;34316;51.514;-0.178;2022-09-09T09:52:22;10.25;;;5.43;;
48524;SDS011;34316;51.514;-0.178;2022-09-09T09:54:29;14.20;;;5.72;;
48524;SDS011;34316;51.514;-0.178;2022-09-09T09:56:33;9.80;;;6.05;;
48524;SDS011;34316;51.514;-0.178;2022-09-09T10:00:49;14.15;;;6.60;;
48524;SDS011;34316;51.514;-0.178;2022-09-09T10:02:52;9.52;;;6.05;;
48524;SDS011;34316;51.514;-0.178;2022-09-09T10:05:04;8.15;;;6.13;;
48524;SDS011;34316;51.514;-0.178;2022-09-09T10:07:23;9.10;;;6.43;;
48524;SDS011;34316;51.514;-0.178;2022-09-09T10:09:25;9.63;;;5.85;;
48524;SDS011;34316;51.514;-0.178;2022-09-09T10:11:31;9.75;;;5.93;;
48524;SDS011;34316;51.514;-0.178;2022-09-09T10:16:25;13.43;;;6.28;;
48524;SDS011;34316;51.514;-0.178;2022-09-09T10:20:46;8.27;;;5.93;;
48524;SDS011;34316;51.514;-0.178;2022-09-09T10:23:54;9.70;;;6.20;;
48524;SDS011;34316;51.514;-0.178;2022-09-09T10:25:50;12.45;;;6.40;;
48524;SDS011;34316;51.514;-0.178;2022-09-09T10:36:44;12.07;;;6.07;;
48524;SDS011;34316;51.514;-0.178;2022-09-09T10:38:52;12.88;;;7.38;;
48524;SDS011;34316;51.514;-0.178;2022-09-09T10:41:01;13.55;;;6.50;;
48524;SDS011;34316;51.514;-0.178;2022-09-09T10:53:37;13.40;;;8.07;;
48524;SDS011;34316;51.514;-0.178;2022-09-09T10:56:10;17.27;;;8.43;;
48524;SDS011;34316;51.514;-0.178;2022-09-09T10:58:19;13.50;;;7.90;;
48524;SDS011;34316;51.514;-0.178;2022-09-09T11:00:49;15.60;;;8.35;;
48524;SDS011;34316;51.514;-0.178;2022-09-09T11:02:59;15.05;;;8.05;;
48524;SDS011;34316;51.514;-0.178;2022-09-09T11:07:07;16.45;;;9.20;;
48524;SDS011;34316;51.514;-0.178;2022-09-09T11:09:15;22.20;;;9.38;;
48524;SDS011;34316;51.514;-0.178;2022-09-09T11:11:19;17.02;;;9.48;;
48524;SDS011;34316;51.514;-0.178;2022-09-09T11:13:42;16.00;;;8.05;;
48524;SDS011;34316;51.514;-0.178;2022-09-09T11:18:29;20.35;;;8.02;;
48524;SDS011;34316;51.514;-0.178;2022-09-09T11:20:33;13.15;;;9.00;;
48524;SDS011;34316;51.514;-0.178;2022-09-09T11:22:37;18.52;;;8.55;;
48524;SDS011;34316;51.514;-0.178;2022-09-09T11:24:54;16.50;;;9.20;;
48524;SDS011;34316;51.514;-0.178;2022-09-09T11:27:03;23.75;;;12.93;;
48524;SDS011;34316;51.514;-0.178;2022-09-09T11:41:33;15.85;;;7.95;;
48524;SDS011;34316;51.514;-0.178;2022-09-09T11:43:44;21.23;;;9.45;;
48524;SDS011;34316;51.514;-0.178;2022-09-09T11:45:51;16.67;;;8.60;;
48524;SDS011;34316;51.514;-0.178;2022-09-09T11:48:01;12.88;;;7.28;;
48524;SDS011;34316;51.514;-0.178;2022-09-09T11:56:34;15.18;;;7.03;;
48524;SDS011;34316;51.514;-0.178;2022-09-09T11:58:53;19.45;;;8.82;;
48524;SDS011;34316;51.514;-0.178;2022-09-09T12:00:59;14.85;;;7.68;;
48524;SDS011;34316;51.514;-0.178;2022-09-09T12:03:02;17.35;;;8.02;;
48524;SDS011;34316;51.514;-0.178;2022-09-09T12:05:06;15.95;;;8.60;;
48524;SDS011;34316;51.514;-0.178;2022-09-09T12:09:27;13.87;;;7.50;;
48524;SDS011;34316;51.514;-0.178;2022-09-09T12:12:17;17.42;;;8.60;;
48524;SDS011;34316;51.514;-0.178;2022-09-09T12:14:55;14.57;;;7.68;;
48524;SDS011;34316;51.514;-0.178;2022-09-09T12:16:55;16.20;;;8.07;;
48524;SDS011;34316;51.514;-0.178;2022-09-09T12:21:37;13.38;;;7.85;;
48524;SDS011;34316;51.514;-0.178;2022-09-09T12:24:02;10.38;;;7.95;;
48524;SDS011;34316;51.514;-0.178;2022-09-09T12:26:51;13.50;;;8.15;;
48524;SDS011;34316;51.514;-0.178;2022-09-09T12:28:49;19.92;;;8.45;;
48524;SDS011;34316;51.514;-0.178;2022-09-09T12:31:07;13.48;;;7.05;;
48524;SDS011;34316;51.514;-0.178;2022-09-09T12:33:16;17.35;;;7.78;;
48524;SDS011;34316;51.514;-0.178;2022-09-09T12:35:22;15.20;;;7.78;;
48524;SDS011;34316;51.514;-0.178;2022-09-09T12:39:45;11.85;;;7.55;;
48524;SDS011;34316;51.514;-0.178;2022-09-09T12:41:52;16.35;;;7.35;;
48524;SDS011;34316;51.514;-0.178;2022-09-09T12:44:05;11.02;;;5.82;;
48524;SDS011;34316;51.514;-0.178;2022-09-09T12:46:08;17.75;;;5.82;;
48524;SDS011;34316;51.514;-0.178;2022-09-09T12:48:11;11.73;;;5.75;;
48524;SDS011;34316;51.514;-0.178;2022-09-09T12:50:24;13.73;;;5.95;;
48524;SDS011;34316;51.514;-0.178;2022-09-09T12:52:29;12.25;;;6.47;;
48524;SDS011;34316;51.514;-0.178;2022-09-09T12:54:34;13.98;;;5.97;;
48524;SDS011;34316;51.514;-0.178;2022-09-09T12:56:37;13.93;;;6.65;;
48524;SDS011;34316;51.514;-0.178;2022-09-09T12:58:39;10.40;;;6.43;;
48524;SDS011;34316;51.514;-0.178;2022-09-09T13:00:49;11.55;;;6.57;;
48524;SDS011;34316;51.514;-0.178;2022-09-09T13:02:54;12.10;;;7.25;;
48524;SDS011;34316;51.514;-0.178;2022-09-09T13:05:06;14.93;;;7.35;;
48524;SDS011;34316;51.514;-0.178;2022-09-09T13:07:15;12.13;;;6.65;;
48524;SDS011;34316;51.514;-0.178;2022-09-09T13:09:17;9.97;;;5.37;;
48524;SDS011;34316;51.514;-0.178;2022-09-09T13:11:21;11.50;;;5.80;;
48524;SDS011;34316;51.514;-0.178;2022-09-09T13:13:29;9.93;;;4.82;;
48524;SDS011;34316;51.514;-0.178;2022-09-09T13:15:36;10.27;;;5.30;;
48524;SDS011;34316;51.514;-0.178;2022-09-09T13:17:38;8.82;;;5.07;;
48524;SDS011;34316;51.514;-0.178;2022-09-09T13:19:44;13.27;;;5.63;;
48524;SDS011;34316;51.514;-0.178;2022-09-09T13:21:47;10.43;;;5.70;;
48524;SDS011;34316;51.514;-0.178;2022-09-09T13:23:49;10.43;;;5.35;;
48524;SDS011;34316;51.514;-0.178;2022-09-09T13:25:57;15.98;;;6.47;;
48524;SDS011;34316;51.514;-0.178;2022-09-09T13:28:23;11.60;;;6.85;;
48524;SDS011;34316;51.514;-0.178;2022-09-09T13:30:28;17.52;;;7.93;;
48524;SDS011;34316;51.514;-0.178;2022-09-09T13:32:30;13.57;;;7.38;;
48524;SDS011;34316;51.514;-0.178;2022-09-09T13:34:33;12.35;;;7.93;;
48524;SDS011;34316;51.514;-0.178;2022-09-09T13:36:37;14.70;;;7.88;;
48524;SDS011;34316;51.514;-0.178;2022-09-09T13:42:58;10.10;;;7.28;;
48524;SDS011;34316;51.514;-0.178;2022-09-09T13:45:00;10.45;;;6.20;;
48524;SDS011;34316;51.514;-0.178;2022-09-09T13:51:27;17.33;;;7.18;;
48524;SDS011;34316;51.514;-0.178;2022-09-09T13:53:33;16.35;;;7.50;;
48524;SDS011;34316;51.514;-0.178;2022-09-09T13:55:35;13.07;;;7.18;;
48524;SDS011;34316;51.514;-0.178;2022-09-09T13:57:37;16.88;;;7.10;;
48524;SDS011;34316;51.514;-0.178;2022-09-09T13:59:39;13.10;;;8.00;;
48524;SDS011;34316;51.514;-0.178;2022-09-09T14:02:01;10.15;;;7.03;;
48524;SDS011;34316;51.514;-0.178;2022-09-09T14:04:03;10.90;;;7.72;;
48524;SDS011;34316;51.514;-0.178;2022-09-09T14:06:07;15.40;;;7.47;;
48524;SDS011;34316;51.514;-0.178;2022-09-09T14:08:09;10.52;;;6.70;;
48524;SDS011;34316;51.514;-0.178;2022-09-09T14:10:38;13.85;;;6.70;;
48524;SDS011;34316;51.514;-0.178;2022-09-09T14:12:40;18.95;;;6.80;;
48524;SDS011;34316;51.514;-0.178;2022-09-09T14:14:42;13.82;;;6.95;;
48524;SDS011;34316;51.514;-0.178;2022-09-09T14:16:45;12.57;;;6.60;;
48524;SDS011;34316;51.514;-0.178;2022-09-09T14:18:47;11.45;;;6.35;;
48524;SDS011;34316;51.514;-0.178;2022-09-09T14:20:48;15.38;;;6.53;;
48524;SDS011;34316;51.514;-0.178;2022-09-09T14:22:51;14.47;;;6.93;;
48524;SDS011;34316;51.514;-0.178;2022-09-09T14:24:54;13.43;;;7.10;;
48524;SDS011;34316;51.514;-0.178;2022-09-09T14:26:56;11.68;;;6.32;;
48524;SDS011;34316;51.514;-0.178;2022-09-09T14:28:57;13.57;;;7.13;;
48524;SDS011;34316;51.514;-0.178;2022-09-09T14:31:00;10.43;;;6.95;;
48524;SDS011;34316;51.514;-0.178;2022-09-09T14:33:02;19.13;;;7.63;;
48524;SDS011;34316;51.514;-0.178;2022-09-09T14:35:04;12.98;;;7.40;;
48524;SDS011;34316;51.514;-0.178;2022-09-09T14:37:06;13.63;;;7.57;;
48524;SDS011;34316;51.514;-0.178;2022-09-09T14:39:07;12.07;;;7.53;;